sensor_id;sensor_type;location;lat;lon;timestamp;temperature;humidity
11925;DHT22;6022;48.768;18.608;2023-04-24T00:00:14;14.70;92.70
11925;DHT22;6022;48.768;18.608;2023-04-24T00:02:45;14.80;92.30
11925;DHT22;6022;48.768;18.608;2023-04-24T00:05:16;14.80;93.00
11925;DHT22;6022;48.768;18.608;2023-04-24T00:07:44;14.80;91.80
11925;DHT22;6022;48.768;18.608;2023-04-24T00:10:12;14.60;91.50
11925;DHT22;6022;48.768;18.608;2023-04-24T00:12:39;14.70;91.70
11925;DHT22;6022;48.768;18.608;2023-04-24T00:15:07;14.40;91.70
11925;DHT22;6022;48.768;18.608;2023-04-24T00:17:35;14.50;91.80
11925;DHT22;6022;48.768;18.608;2023-04-24T00:20:04;14.70;91.50
11925;DHT22;6022;48.768;18.608;2023-04-24T00:22:33;14.70;91.60
11925;DHT22;6022;48.768;18.608;2023-04-24T00:25:01;14.80;92.40
11925;DHT22;6022;48.768;18.608;2023-04-24T00:27:29;14.60;92.60
11925;DHT22;6022;48.768;18.608;2023-04-24T00:29:58;14.40;91.70
11925;DHT22;6022;48.768;18.608;2023-04-24T00:32:25;14.50;91.80
11925;DHT22;6022;48.768;18.608;2023-04-24T00:34:53;14.50;92.10
11925;DHT22;6022;48.768;18.608;2023-04-24T00:37:20;14.30;91.80
11925;DHT22;6022;48.768;18.608;2023-04-24T00:39:48;14.60;92.10
11925;DHT22;6022;48.768;18.608;2023-04-24T00:42:15;14.40;92.00
11925;DHT22;6022;48.768;18.608;2023-04-24T00:44:43;14.30;92.80
11925;DHT22;6022;48.768;18.608;2023-04-24T00:47:11;14.50;93.20
11925;DHT22;6022;48.768;18.608;2023-04-24T00:49:39;14.60;93.10
11925;DHT22;6022;48.768;18.608;2023-04-24T00:52:07;14.40;92.90
11925;DHT22;6022;48.768;18.608;2023-04-24T00:54:38;14.30;92.90
11925;DHT22;6022;48.768;18.608;2023-04-24T00:57:05;14.30;93.90
11925;DHT22;6022;48.768;18.608;2023-04-24T00:59:33;14.30;94.80
11925;DHT22;6022;48.768;18.608;2023-04-24T01:02:02;14.40;94.90
11925;DHT22;6022;48.768;18.608;2023-04-24T01:04:30;14.30;93.50
11925;DHT22;6022;48.768;18.608;2023-04-24T01:06:57;14.40;93.90
11925;DHT22;6022;48.768;18.608;2023-04-24T01:09:25;14.30;95.00
11925;DHT22;6022;48.768;18.608;2023-04-24T01:11:56;14.20;96.00
11925;DHT22;6022;48.768;18.608;2023-04-24T01:14:23;14.20;96.20
11925;DHT22;6022;48.768;18.608;2023-04-24T01:16:50;14.30;95.10
11925;DHT22;6022;48.768;18.608;2023-04-24T01:19:19;14.40;93.70
11925;DHT22;6022;48.768;18.608;2023-04-24T01:21:47;14.40;92.70
11925;DHT22;6022;48.768;18.608;2023-04-24T01:24:32;14.30;92.90
11925;DHT22;6022;48.768;18.608;2023-04-24T01:26:59;14.60;91.40
11925;DHT22;6022;48.768;18.608;2023-04-24T01:29:28;14.30;91.30
11925;DHT22;6022;48.768;18.608;2023-04-24T01:31:55;14.30;92.20
11925;DHT22;6022;48.768;18.608;2023-04-24T01:34:25;14.70;91.00
11925;DHT22;6022;48.768;18.608;2023-04-24T01:36:53;14.70;91.30
11925;DHT22;6022;48.768;18.608;2023-04-24T01:39:21;14.30;92.50
11925;DHT22;6022;48.768;18.608;2023-04-24T01:41:50;14.30;92.30
11925;DHT22;6022;48.768;18.608;2023-04-24T01:44:18;14.50;92.80
11925;DHT22;6022;48.768;18.608;2023-04-24T01:46:45;14.20;91.70
11925;DHT22;6022;48.768;18.608;2023-04-24T01:49:13;14.30;91.50
11925;DHT22;6022;48.768;18.608;2023-04-24T01:51:40;14.20;91.50
11925;DHT22;6022;48.768;18.608;2023-04-24T01:54:08;14.10;92.70
11925;DHT22;6022;48.768;18.608;2023-04-24T01:56:36;14.20;92.40
11925;DHT22;6022;48.768;18.608;2023-04-24T01:59:10;14.40;93.50
11925;DHT22;6022;48.768;18.608;2023-04-24T02:01:38;14.20;93.90
11925;DHT22;6022;48.768;18.608;2023-04-24T02:04:12;14.10;93.00
11925;DHT22;6022;48.768;18.608;2023-04-24T02:06:46;14.20;91.70
11925;DHT22;6022;48.768;18.608;2023-04-24T02:09:17;14.20;92.00
11925;DHT22;6022;48.768;18.608;2023-04-24T02:11:44;14.00;94.80
11925;DHT22;6022;48.768;18.608;2023-04-24T02:14:12;14.20;95.50
11925;DHT22;6022;48.768;18.608;2023-04-24T02:16:39;14.50;94.80
11925;DHT22;6022;48.768;18.608;2023-04-24T02:19:07;14.20;95.20
11925;DHT22;6022;48.768;18.608;2023-04-24T02:21:36;14.00;94.70
11925;DHT22;6022;48.768;18.608;2023-04-24T02:24:04;14.60;93.60
11925;DHT22;6022;48.768;18.608;2023-04-24T02:26:31;14.10;94.50
11925;DHT22;6022;48.768;18.608;2023-04-24T02:28:58;14.10;93.60
11925;DHT22;6022;48.768;18.608;2023-04-24T02:31:26;14.10;93.90
11925;DHT22;6022;48.768;18.608;2023-04-24T02:33:54;14.20;94.70
11925;DHT22;6022;48.768;18.608;2023-04-24T02:36:36;14.10;92.50
11925;DHT22;6022;48.768;18.608;2023-04-24T02:39:03;14.20;93.80
11925;DHT22;6022;48.768;18.608;2023-04-24T02:41:33;14.20;92.60
11925;DHT22;6022;48.768;18.608;2023-04-24T02:44:01;14.20;92.00
11925;DHT22;6022;48.768;18.608;2023-04-24T02:46:28;14.20;91.40
11925;DHT22;6022;48.768;18.608;2023-04-24T02:48:56;14.30;91.60
11925;DHT22;6022;48.768;18.608;2023-04-24T02:51:23;14.20;90.70
11925;DHT22;6022;48.768;18.608;2023-04-24T02:53:51;14.50;90.30
11925;DHT22;6022;48.768;18.608;2023-04-24T02:56:18;14.40;90.30
11925;DHT22;6022;48.768;18.608;2023-04-24T02:58:46;14.40;90.00
11925;DHT22;6022;48.768;18.608;2023-04-24T03:01:14;14.40;90.40
11925;DHT22;6022;48.768;18.608;2023-04-24T03:03:41;14.30;90.10
11925;DHT22;6022;48.768;18.608;2023-04-24T03:06:09;14.30;89.80
11925;DHT22;6022;48.768;18.608;2023-04-24T03:08:36;14.40;90.10
11925;DHT22;6022;48.768;18.608;2023-04-24T03:11:04;14.50;90.30
11925;DHT22;6022;48.768;18.608;2023-04-24T03:13:32;14.60;90.60
11925;DHT22;6022;48.768;18.608;2023-04-24T03:15:59;14.30;90.40
11925;DHT22;6022;48.768;18.608;2023-04-24T03:18:27;14.70;90.30
11925;DHT22;6022;48.768;18.608;2023-04-24T03:20:54;14.50;90.70
11925;DHT22;6022;48.768;18.608;2023-04-24T03:23:22;14.50;92.30
11925;DHT22;6022;48.768;18.608;2023-04-24T03:25:49;14.30;93.50
11925;DHT22;6022;48.768;18.608;2023-04-24T03:28:16;14.20;93.50
11925;DHT22;6022;48.768;18.608;2023-04-24T03:30:46;14.40;92.10
11925;DHT22;6022;48.768;18.608;2023-04-24T03:33:14;14.60;94.30
11925;DHT22;6022;48.768;18.608;2023-04-24T03:35:42;14.30;97.50
11925;DHT22;6022;48.768;18.608;2023-04-24T03:38:09;14.20;99.40
11925;DHT22;6022;48.768;18.608;2023-04-24T03:40:37;14.40;99.20
11925;DHT22;6022;48.768;18.608;2023-04-24T03:43:05;14.50;98.50
11925;DHT22;6022;48.768;18.608;2023-04-24T03:45:34;14.10;97.20
11925;DHT22;6022;48.768;18.608;2023-04-24T03:48:02;14.40;97.50
11925;DHT22;6022;48.768;18.608;2023-04-24T03:50:32;14.20;97.60
11925;DHT22;6022;48.768;18.608;2023-04-24T03:53:02;14.10;98.20
11925;DHT22;6022;48.768;18.608;2023-04-24T03:55:32;14.10;99.90
11925;DHT22;6022;48.768;18.608;2023-04-24T03:58:13;13.90;99.90
11925;DHT22;6022;48.768;18.608;2023-04-24T04:00:41;14.00;99.90
11925;DHT22;6022;48.768;18.608;2023-04-24T04:03:09;14.00;99.90
11925;DHT22;6022;48.768;18.608;2023-04-24T04:05:37;13.90;99.90
11925;DHT22;6022;48.768;18.608;2023-04-24T04:08:07;13.90;99.90
11925;DHT22;6022;48.768;18.608;2023-04-24T04:10:41;13.80;99.90
11925;DHT22;6022;48.768;18.608;2023-04-24T04:13:12;13.70;99.90
11925;DHT22;6022;48.768;18.608;2023-04-24T04:15:40;13.20;99.90
11925;DHT22;6022;48.768;18.608;2023-04-24T04:18:08;13.40;99.90
11925;DHT22;6022;48.768;18.608;2023-04-24T04:20:35;13.30;99.90
11925;DHT22;6022;48.768;18.608;2023-04-24T04:23:03;13.50;99.90
11925;DHT22;6022;48.768;18.608;2023-04-24T04:25:35;13.60;99.90
11925;DHT22;6022;48.768;18.608;2023-04-24T04:28:03;13.60;99.90
11925;DHT22;6022;48.768;18.608;2023-04-24T04:30:30;13.60;99.90
11925;DHT22;6022;48.768;18.608;2023-04-24T04:32:59;13.50;99.90
11925;DHT22;6022;48.768;18.608;2023-04-24T04:35:27;13.30;99.90
11925;DHT22;6022;48.768;18.608;2023-04-24T04:37:54;13.20;99.90
11925;DHT22;6022;48.768;18.608;2023-04-24T04:40:25;13.20;99.90
11925;DHT22;6022;48.768;18.608;2023-04-24T04:42:54;13.50;99.90
11925;DHT22;6022;48.768;18.608;2023-04-24T04:45:21;13.60;99.90
11925;DHT22;6022;48.768;18.608;2023-04-24T04:47:51;13.50;99.90
11925;DHT22;6022;48.768;18.608;2023-04-24T04:50:18;13.60;99.90
11925;DHT22;6022;48.768;18.608;2023-04-24T04:52:46;13.50;99.90
11925;DHT22;6022;48.768;18.608;2023-04-24T04:55:13;13.40;99.90
11925;DHT22;6022;48.768;18.608;2023-04-24T04:57:41;13.60;99.90
11925;DHT22;6022;48.768;18.608;2023-04-24T05:00:09;13.60;99.90
11925;DHT22;6022;48.768;18.608;2023-04-24T05:02:38;13.60;99.90
11925;DHT22;6022;48.768;18.608;2023-04-24T05:05:07;13.50;99.90
11925;DHT22;6022;48.768;18.608;2023-04-24T05:07:35;13.70;99.90
11925;DHT22;6022;48.768;18.608;2023-04-24T05:10:03;13.90;99.90
11925;DHT22;6022;48.768;18.608;2023-04-24T05:12:30;13.80;99.90
11925;DHT22;6022;48.768;18.608;2023-04-24T05:14:58;13.90;99.90
11925;DHT22;6022;48.768;18.608;2023-04-24T05:17:25;13.80;99.90
11925;DHT22;6022;48.768;18.608;2023-04-24T05:19:53;13.80;99.90
11925;DHT22;6022;48.768;18.608;2023-04-24T05:22:20;13.80;99.90
11925;DHT22;6022;48.768;18.608;2023-04-24T05:24:49;13.70;99.90
11925;DHT22;6022;48.768;18.608;2023-04-24T05:27:17;13.60;99.90
11925;DHT22;6022;48.768;18.608;2023-04-24T05:29:44;13.70;99.90
11925;DHT22;6022;48.768;18.608;2023-04-24T05:32:14;13.30;99.90
11925;DHT22;6022;48.768;18.608;2023-04-24T05:34:43;13.40;99.90
11925;DHT22;6022;48.768;18.608;2023-04-24T05:37:11;13.50;99.90
11925;DHT22;6022;48.768;18.608;2023-04-24T05:39:39;13.40;99.90
11925;DHT22;6022;48.768;18.608;2023-04-24T05:42:08;13.20;99.90
11925;DHT22;6022;48.768;18.608;2023-04-24T05:44:35;13.30;99.90
11925;DHT22;6022;48.768;18.608;2023-04-24T05:47:06;13.20;99.90
11925;DHT22;6022;48.768;18.608;2023-04-24T05:49:33;13.70;99.90
11925;DHT22;6022;48.768;18.608;2023-04-24T05:52:00;13.60;99.90
11925;DHT22;6022;48.768;18.608;2023-04-24T05:54:28;13.60;99.90
11925;DHT22;6022;48.768;18.608;2023-04-24T05:56:58;14.20;99.90
11925;DHT22;6022;48.768;18.608;2023-04-24T05:59:25;14.30;99.90
11925;DHT22;6022;48.768;18.608;2023-04-24T06:01:53;14.40;99.90
11925;DHT22;6022;48.768;18.608;2023-04-24T06:04:20;14.50;99.90
11925;DHT22;6022;48.768;18.608;2023-04-24T06:06:48;14.60;99.90
11925;DHT22;6022;48.768;18.608;2023-04-24T06:09:17;15.10;99.90
11925;DHT22;6022;48.768;18.608;2023-04-24T06:11:45;15.20;99.90
11925;DHT22;6022;48.768;18.608;2023-04-24T06:14:12;14.80;99.90
11925;DHT22;6022;48.768;18.608;2023-04-24T06:16:43;14.70;99.90
11925;DHT22;6022;48.768;18.608;2023-04-24T06:19:10;14.80;99.90
11925;DHT22;6022;48.768;18.608;2023-04-24T06:21:37;14.90;99.90
11925;DHT22;6022;48.768;18.608;2023-04-24T06:24:05;14.90;99.90
11925;DHT22;6022;48.768;18.608;2023-04-24T06:26:32;14.80;99.90
11925;DHT22;6022;48.768;18.608;2023-04-24T06:29:00;15.00;99.90
11925;DHT22;6022;48.768;18.608;2023-04-24T06:31:32;14.90;99.90
11925;DHT22;6022;48.768;18.608;2023-04-24T06:34:11;15.20;99.90
11925;DHT22;6022;48.768;18.608;2023-04-24T06:36:38;14.90;99.90
11925;DHT22;6022;48.768;18.608;2023-04-24T06:39:09;15.30;99.90
11925;DHT22;6022;48.768;18.608;2023-04-24T06:41:37;14.90;99.90
11925;DHT22;6022;48.768;18.608;2023-04-24T06:44:04;14.80;99.90
11925;DHT22;6022;48.768;18.608;2023-04-24T06:46:34;14.90;99.90
11925;DHT22;6022;48.768;18.608;2023-04-24T06:49:03;15.20;99.90
11925;DHT22;6022;48.768;18.608;2023-04-24T06:51:35;15.10;99.90
11925;DHT22;6022;48.768;18.608;2023-04-24T06:54:05;15.10;99.90
11925;DHT22;6022;48.768;18.608;2023-04-24T06:56:44;15.20;99.90
11925;DHT22;6022;48.768;18.608;2023-04-24T06:59:19;15.10;99.90
11925;DHT22;6022;48.768;18.608;2023-04-24T07:01:49;14.90;99.90
11925;DHT22;6022;48.768;18.608;2023-04-24T07:04:21;15.20;99.90
11925;DHT22;6022;48.768;18.608;2023-04-24T07:06:49;15.00;99.90
11925;DHT22;6022;48.768;18.608;2023-04-24T07:09:23;15.00;99.90
11925;DHT22;6022;48.768;18.608;2023-04-24T07:11:52;15.10;99.90
11925;DHT22;6022;48.768;18.608;2023-04-24T07:14:30;15.00;99.90
11925;DHT22;6022;48.768;18.608;2023-04-24T07:17:06;14.90;99.90
11925;DHT22;6022;48.768;18.608;2023-04-24T07:19:38;14.90;99.90
11925;DHT22;6022;48.768;18.608;2023-04-24T07:25:28;15.40;99.90
11925;DHT22;6022;48.768;18.608;2023-04-24T07:28:13;15.20;99.90
11925;DHT22;6022;48.768;18.608;2023-04-24T07:30:43;15.30;99.90
11925;DHT22;6022;48.768;18.608;2023-04-24T07:33:14;15.40;99.90
11925;DHT22;6022;48.768;18.608;2023-04-24T07:36:11;15.50;99.90
11925;DHT22;6022;48.768;18.608;2023-04-24T07:38:53;15.50;99.90
11925;DHT22;6022;48.768;18.608;2023-04-24T07:41:21;15.50;99.90
11925;DHT22;6022;48.768;18.608;2023-04-24T07:43:50;15.40;99.90
11925;DHT22;6022;48.768;18.608;2023-04-24T07:46:23;15.40;99.90
11925;DHT22;6022;48.768;18.608;2023-04-24T07:49:00;15.50;99.90
11925;DHT22;6022;48.768;18.608;2023-04-24T07:51:40;15.30;99.90
11925;DHT22;6022;48.768;18.608;2023-04-24T07:54:08;15.30;99.90
11925;DHT22;6022;48.768;18.608;2023-04-24T07:56:36;15.00;99.90
11925;DHT22;6022;48.768;18.608;2023-04-24T07:59:06;15.50;99.90
11925;DHT22;6022;48.768;18.608;2023-04-24T08:01:34;15.40;99.90
11925;DHT22;6022;48.768;18.608;2023-04-24T08:04:03;15.40;99.90
11925;DHT22;6022;48.768;18.608;2023-04-24T08:06:32;15.30;99.90
11925;DHT22;6022;48.768;18.608;2023-04-24T08:08:59;15.40;99.90
11925;DHT22;6022;48.768;18.608;2023-04-24T08:11:28;15.30;99.90
11925;DHT22;6022;48.768;18.608;2023-04-24T08:13:58;15.60;99.90
11925;DHT22;6022;48.768;18.608;2023-04-24T08:16:26;15.30;99.90
11925;DHT22;6022;48.768;18.608;2023-04-24T08:18:56;15.60;99.90
11925;DHT22;6022;48.768;18.608;2023-04-24T08:21:26;15.10;99.90
11925;DHT22;6022;48.768;18.608;2023-04-24T08:24:01;15.40;99.90
11925;DHT22;6022;48.768;18.608;2023-04-24T08:26:42;15.20;99.90
11925;DHT22;6022;48.768;18.608;2023-04-24T08:29:12;15.30;99.90
11925;DHT22;6022;48.768;18.608;2023-04-24T08:32:00;15.30;99.90
11925;DHT22;6022;48.768;18.608;2023-04-24T08:34:28;15.00;99.90
11925;DHT22;6022;48.768;18.608;2023-04-24T08:36:55;15.10;99.90
11925;DHT22;6022;48.768;18.608;2023-04-24T08:39:24;15.30;99.90
11925;DHT22;6022;48.768;18.608;2023-04-24T08:41:55;15.30;99.90
11925;DHT22;6022;48.768;18.608;2023-04-24T08:44:23;15.00;99.90
11925;DHT22;6022;48.768;18.608;2023-04-24T08:46:50;15.40;99.90
11925;DHT22;6022;48.768;18.608;2023-04-24T08:49:19;15.30;99.90
11925;DHT22;6022;48.768;18.608;2023-04-24T08:51:55;14.80;99.90
11925;DHT22;6022;48.768;18.608;2023-04-24T08:54:36;15.20;99.90
11925;DHT22;6022;48.768;18.608;2023-04-24T08:57:07;15.10;99.90
11925;DHT22;6022;48.768;18.608;2023-04-24T08:59:38;14.90;99.90
11925;DHT22;6022;48.768;18.608;2023-04-24T09:02:10;14.70;99.90
11925;DHT22;6022;48.768;18.608;2023-04-24T09:04:40;14.90;99.90
11925;DHT22;6022;48.768;18.608;2023-04-24T09:07:12;14.60;99.90
11925;DHT22;6022;48.768;18.608;2023-04-24T09:09:46;14.50;99.90
11925;DHT22;6022;48.768;18.608;2023-04-24T09:12:15;14.40;99.90
11925;DHT22;6022;48.768;18.608;2023-04-24T09:14:42;14.50;99.90
11925;DHT22;6022;48.768;18.608;2023-04-24T09:17:12;14.40;99.90
11925;DHT22;6022;48.768;18.608;2023-04-24T09:19:40;14.40;99.90
11925;DHT22;6022;48.768;18.608;2023-04-24T09:22:09;14.40;99.90
11925;DHT22;6022;48.768;18.608;2023-04-24T09:24:40;14.30;99.90
11925;DHT22;6022;48.768;18.608;2023-04-24T09:27:11;14.20;99.90
11925;DHT22;6022;48.768;18.608;2023-04-24T09:29:39;14.50;99.90
11925;DHT22;6022;48.768;18.608;2023-04-24T09:32:22;14.00;99.90
11925;DHT22;6022;48.768;18.608;2023-04-24T09:35:13;14.20;99.90
11925;DHT22;6022;48.768;18.608;2023-04-24T09:37:43;14.10;99.90
11925;DHT22;6022;48.768;18.608;2023-04-24T09:40:20;13.90;99.90
11925;DHT22;6022;48.768;18.608;2023-04-24T09:42:56;14.00;99.90
11925;DHT22;6022;48.768;18.608;2023-04-24T09:45:28;14.00;99.90
11925;DHT22;6022;48.768;18.608;2023-04-24T09:48:02;14.10;99.90
11925;DHT22;6022;48.768;18.608;2023-04-24T09:50:30;14.10;99.90
11925;DHT22;6022;48.768;18.608;2023-04-24T09:53:05;13.70;99.90
11925;DHT22;6022;48.768;18.608;2023-04-24T09:55:39;13.90;99.90
11925;DHT22;6022;48.768;18.608;2023-04-24T09:58:11;14.00;99.90
11925;DHT22;6022;48.768;18.608;2023-04-24T10:00:38;14.20;99.90
11925;DHT22;6022;48.768;18.608;2023-04-24T10:03:06;13.90;99.90
11925;DHT22;6022;48.768;18.608;2023-04-24T10:05:36;13.90;99.90
11925;DHT22;6022;48.768;18.608;2023-04-24T10:08:10;13.90;99.90
11925;DHT22;6022;48.768;18.608;2023-04-24T10:10:43;14.00;99.90
11925;DHT22;6022;48.768;18.608;2023-04-24T10:13:13;14.00;99.90
11925;DHT22;6022;48.768;18.608;2023-04-24T10:15:42;14.00;99.90
11925;DHT22;6022;48.768;18.608;2023-04-24T10:18:11;14.00;99.90
11925;DHT22;6022;48.768;18.608;2023-04-24T10:20:39;13.60;99.90
11925;DHT22;6022;48.768;18.608;2023-04-24T10:23:07;14.10;99.90
11925;DHT22;6022;48.768;18.608;2023-04-24T10:25:35;14.00;99.90
11925;DHT22;6022;48.768;18.608;2023-04-24T10:28:04;14.00;99.90
11925;DHT22;6022;48.768;18.608;2023-04-24T10:30:35;14.10;99.90
11925;DHT22;6022;48.768;18.608;2023-04-24T10:33:07;14.20;99.90
11925;DHT22;6022;48.768;18.608;2023-04-24T10:35:41;13.80;99.90
11925;DHT22;6022;48.768;18.608;2023-04-24T10:38:13;13.80;99.90
11925;DHT22;6022;48.768;18.608;2023-04-24T10:40:43;13.70;99.90
11925;DHT22;6022;48.768;18.608;2023-04-24T10:43:17;14.00;99.90
11925;DHT22;6022;48.768;18.608;2023-04-24T10:46:08;13.90;99.90
11925;DHT22;6022;48.768;18.608;2023-04-24T10:48:42;13.90;99.90
11925;DHT22;6022;48.768;18.608;2023-04-24T10:51:12;13.80;99.90
11925;DHT22;6022;48.768;18.608;2023-04-24T10:53:40;14.00;99.90
11925;DHT22;6022;48.768;18.608;2023-04-24T10:56:09;14.00;99.90
11925;DHT22;6022;48.768;18.608;2023-04-24T11:01:31;14.10;99.90
11925;DHT22;6022;48.768;18.608;2023-04-24T11:04:01;14.00;99.90
11925;DHT22;6022;48.768;18.608;2023-04-24T11:11:37;14.00;99.90
11925;DHT22;6022;48.768;18.608;2023-04-24T11:14:11;14.10;99.90
11925;DHT22;6022;48.768;18.608;2023-04-24T11:16:53;13.90;99.90
11925;DHT22;6022;48.768;18.608;2023-04-24T11:19:25;14.00;99.90
11925;DHT22;6022;48.768;18.608;2023-04-24T11:24:53;14.00;99.90
11925;DHT22;6022;48.768;18.608;2023-04-24T11:27:21;14.10;99.90
11925;DHT22;6022;48.768;18.608;2023-04-24T11:35:18;14.30;99.90
11925;DHT22;6022;48.768;18.608;2023-04-24T11:37:50;14.10;99.90
11925;DHT22;6022;48.768;18.608;2023-04-24T11:40:42;14.20;99.90
11925;DHT22;6022;48.768;18.608;2023-04-24T11:43:14;14.10;99.90
11925;DHT22;6022;48.768;18.608;2023-04-24T11:45:48;14.20;99.90
11925;DHT22;6022;48.768;18.608;2023-04-24T11:48:21;14.00;99.90
11925;DHT22;6022;48.768;18.608;2023-04-24T11:50:50;14.00;99.90
11925;DHT22;6022;48.768;18.608;2023-04-24T11:53:20;14.00;99.90
11925;DHT22;6022;48.768;18.608;2023-04-24T11:55:50;13.90;99.90
11925;DHT22;6022;48.768;18.608;2023-04-24T11:58:34;13.90;99.90
11925;DHT22;6022;48.768;18.608;2023-04-24T12:01:02;13.90;99.90
11925;DHT22;6022;48.768;18.608;2023-04-24T12:03:30;14.10;99.90
11925;DHT22;6022;48.768;18.608;2023-04-24T12:06:06;14.10;99.90
11925;DHT22;6022;48.768;18.608;2023-04-24T12:08:37;13.90;99.90
11925;DHT22;6022;48.768;18.608;2023-04-24T12:11:05;14.20;99.90
11925;DHT22;6022;48.768;18.608;2023-04-24T12:13:36;13.90;99.90
11925;DHT22;6022;48.768;18.608;2023-04-24T12:16:04;13.90;99.90
11925;DHT22;6022;48.768;18.608;2023-04-24T12:18:32;14.30;99.90
11925;DHT22;6022;48.768;18.608;2023-04-24T12:21:22;14.30;99.90
11925;DHT22;6022;48.768;18.608;2023-04-24T12:23:54;14.10;99.90
11925;DHT22;6022;48.768;18.608;2023-04-24T12:26:22;14.10;99.90
11925;DHT22;6022;48.768;18.608;2023-04-24T12:29:04;14.00;99.90
11925;DHT22;6022;48.768;18.608;2023-04-24T12:31:31;13.90;99.90
11925;DHT22;6022;48.768;18.608;2023-04-24T12:34:00;14.00;99.90
11925;DHT22;6022;48.768;18.608;2023-04-24T12:36:27;13.90;99.90
11925;DHT22;6022;48.768;18.608;2023-04-24T12:39:20;13.90;99.90
11925;DHT22;6022;48.768;18.608;2023-04-24T12:41:59;14.00;99.90
11925;DHT22;6022;48.768;18.608;2023-04-24T12:44:31;14.10;99.90
11925;DHT22;6022;48.768;18.608;2023-04-24T12:47:04;14.10;99.90
11925;DHT22;6022;48.768;18.608;2023-04-24T12:49:33;14.00;99.90
11925;DHT22;6022;48.768;18.608;2023-04-24T12:52:01;13.90;99.90
11925;DHT22;6022;48.768;18.608;2023-04-24T12:54:32;13.90;99.90
11925;DHT22;6022;48.768;18.608;2023-04-24T12:57:03;13.90;99.90
11925;DHT22;6022;48.768;18.608;2023-04-24T12:59:42;13.90;99.90
11925;DHT22;6022;48.768;18.608;2023-04-24T13:02:11;13.80;99.90
11925;DHT22;6022;48.768;18.608;2023-04-24T13:04:39;13.70;99.90
11925;DHT22;6022;48.768;18.608;2023-04-24T13:07:07;13.80;99.90
11925;DHT22;6022;48.768;18.608;2023-04-24T13:09:35;13.80;99.90
11925;DHT22;6022;48.768;18.608;2023-04-24T13:12:02;13.80;99.90
11925;DHT22;6022;48.768;18.608;2023-04-24T13:14:29;13.80;99.90
11925;DHT22;6022;48.768;18.608;2023-04-24T13:16:57;13.60;99.90
11925;DHT22;6022;48.768;18.608;2023-04-24T13:19:25;13.70;99.90
11925;DHT22;6022;48.768;18.608;2023-04-24T13:21:57;13.40;99.90
11925;DHT22;6022;48.768;18.608;2023-04-24T13:24:33;13.40;99.90
11925;DHT22;6022;48.768;18.608;2023-04-24T13:27:04;13.70;99.90
11925;DHT22;6022;48.768;18.608;2023-04-24T13:29:32;13.70;99.90
11925;DHT22;6022;48.768;18.608;2023-04-24T13:32:06;13.70;99.90
11925;DHT22;6022;48.768;18.608;2023-04-24T13:34:34;13.80;99.90
11925;DHT22;6022;48.768;18.608;2023-04-24T13:37:02;13.70;99.90
11925;DHT22;6022;48.768;18.608;2023-04-24T13:39:33;13.80;99.90
11925;DHT22;6022;48.768;18.608;2023-04-24T13:42:00;13.70;99.90
11925;DHT22;6022;48.768;18.608;2023-04-24T13:44:31;13.90;99.90
11925;DHT22;6022;48.768;18.608;2023-04-24T13:46:58;13.80;99.90
11925;DHT22;6022;48.768;18.608;2023-04-24T13:49:26;13.80;99.90
11925;DHT22;6022;48.768;18.608;2023-04-24T13:51:55;13.70;99.90
11925;DHT22;6022;48.768;18.608;2023-04-24T13:54:23;13.90;99.90
11925;DHT22;6022;48.768;18.608;2023-04-24T13:56:53;13.70;99.90
11925;DHT22;6022;48.768;18.608;2023-04-24T13:59:23;13.70;99.90
11925;DHT22;6022;48.768;18.608;2023-04-24T14:01:52;13.70;99.90
11925;DHT22;6022;48.768;18.608;2023-04-24T14:04:24;13.80;99.90
11925;DHT22;6022;48.768;18.608;2023-04-24T14:06:59;13.60;99.90
11925;DHT22;6022;48.768;18.608;2023-04-24T14:09:27;13.80;99.90
11925;DHT22;6022;48.768;18.608;2023-04-24T14:11:54;13.90;99.90
11925;DHT22;6022;48.768;18.608;2023-04-24T14:14:22;13.80;99.90
11925;DHT22;6022;48.768;18.608;2023-04-24T14:16:49;13.80;99.90
11925;DHT22;6022;48.768;18.608;2023-04-24T14:19:17;14.00;99.90
11925;DHT22;6022;48.768;18.608;2023-04-24T14:21:44;13.80;99.90
11925;DHT22;6022;48.768;18.608;2023-04-24T14:24:12;13.90;99.90
11925;DHT22;6022;48.768;18.608;2023-04-24T14:26:42;13.80;99.90
11925;DHT22;6022;48.768;18.608;2023-04-24T14:29:31;13.90;99.90
11925;DHT22;6022;48.768;18.608;2023-04-24T14:32:01;13.70;99.90
11925;DHT22;6022;48.768;18.608;2023-04-24T14:34:34;13.80;99.90
11925;DHT22;6022;48.768;18.608;2023-04-24T14:37:04;13.90;99.90
11925;DHT22;6022;48.768;18.608;2023-04-24T14:40:03;13.70;99.90
11925;DHT22;6022;48.768;18.608;2023-04-24T14:43:01;13.60;99.90
11925;DHT22;6022;48.768;18.608;2023-04-24T14:45:49;13.60;99.90
11925;DHT22;6022;48.768;18.608;2023-04-24T14:48:44;13.10;99.90
11925;DHT22;6022;48.768;18.608;2023-04-24T14:51:12;13.30;99.90
11925;DHT22;6022;48.768;18.608;2023-04-24T14:53:39;12.90;99.90
11925;DHT22;6022;48.768;18.608;2023-04-24T14:56:07;12.80;99.90
11925;DHT22;6022;48.768;18.608;2023-04-24T14:58:34;12.70;99.90
11925;DHT22;6022;48.768;18.608;2023-04-24T15:01:02;12.90;99.90
11925;DHT22;6022;48.768;18.608;2023-04-24T15:03:29;12.80;99.90
11925;DHT22;6022;48.768;18.608;2023-04-24T15:05:58;12.90;99.90
11925;DHT22;6022;48.768;18.608;2023-04-24T15:08:25;12.80;99.90
11925;DHT22;6022;48.768;18.608;2023-04-24T15:10:52;12.60;99.90
11925;DHT22;6022;48.768;18.608;2023-04-24T15:13:20;12.50;99.90
11925;DHT22;6022;48.768;18.608;2023-04-24T15:15:50;12.60;99.90
11925;DHT22;6022;48.768;18.608;2023-04-24T15:18:18;12.60;99.90
11925;DHT22;6022;48.768;18.608;2023-04-24T15:20:45;12.60;99.90
11925;DHT22;6022;48.768;18.608;2023-04-24T15:23:12;12.80;99.90
11925;DHT22;6022;48.768;18.608;2023-04-24T15:25:39;12.60;99.90
11925;DHT22;6022;48.768;18.608;2023-04-24T15:28:07;12.50;99.90
11925;DHT22;6022;48.768;18.608;2023-04-24T15:30:34;12.50;99.90
11925;DHT22;6022;48.768;18.608;2023-04-24T15:33:01;12.30;99.90
11925;DHT22;6022;48.768;18.608;2023-04-24T15:35:29;12.40;99.90
11925;DHT22;6022;48.768;18.608;2023-04-24T15:37:56;12.40;99.90
11925;DHT22;6022;48.768;18.608;2023-04-24T15:40:24;12.40;99.90
11925;DHT22;6022;48.768;18.608;2023-04-24T15:42:53;12.30;99.90
11925;DHT22;6022;48.768;18.608;2023-04-24T15:45:20;12.30;99.90
11925;DHT22;6022;48.768;18.608;2023-04-24T15:47:51;12.40;99.90
11925;DHT22;6022;48.768;18.608;2023-04-24T15:50:18;12.30;99.90
11925;DHT22;6022;48.768;18.608;2023-04-24T15:52:47;12.30;99.90
11925;DHT22;6022;48.768;18.608;2023-04-24T15:55:14;12.30;99.90
11925;DHT22;6022;48.768;18.608;2023-04-24T15:57:42;12.10;99.90
11925;DHT22;6022;48.768;18.608;2023-04-24T16:00:10;12.10;99.90
11925;DHT22;6022;48.768;18.608;2023-04-24T16:02:39;12.10;99.90
11925;DHT22;6022;48.768;18.608;2023-04-24T16:05:07;12.20;99.90
11925;DHT22;6022;48.768;18.608;2023-04-24T16:07:37;12.30;99.90